Terminal Aerodrome Forecast
Issued by NWS

Home | Current Version | Previous Version | Text Only | Print | Product List | Glossary On
Versions: 1 2 3 4 5 6 7 8 9 10 11 12 13 14 15 16
000
FTUS42 KMLB 191127
TAFTIX
TAF
KTIX 191127Z 1912/2012 VRB03KT P6SM BKN250
     FM191500 22005KT P6SM SCT025 SCT250
     FM191800 11009KT P6SM SCT040
     FM200100 14004KT P6SM FEW040 SCT250=

USA.gov is the U.S. government's official web portal to all federal, state and local government web resources and services.